^^

..:: Storico WU ::..




Lo storico viene creato da WUnderground con i dati che la stazione Meteomincio invia al loro server. L' aggiornamento viene fatto ogni 5 minuti circa, tuttavia possono esserci intervalli pi¨ ampi a causa di errori, interruzioni di servizio o problemi nell' invio tramite FTP.


Storico stazione MeteoMincio
Giorno Sommario per Febbario 03, 2022 Unità:  Inglese    Metrico   Entrambi
Giorno Settimana Mese Anno
  Max: Min: Media:
Temperatura: 56.5 °F 32.2 °F 43.7 °F
Dew Point: 46 °F 30 °F 38.5 °F
Umidità: 92.4% 67% 83%
Velocità vento: 15.1mph 0mph 4.7mph
Raffica: 25.3mph - -
Direzione- - ESE
Pressione: 30.2 in 30 in -
Precipitazioni: 0 in    
 
 
Tabulato Dati per Febbario 03, 2022
Ora Temperatura Dew Point Pressione Direzione Velocità vento Raffica Umidità Intensità pioggia (oraria) Info solare Situazione
00:04 37.6 °F 33.8 °F 30 in NNE 1.8 mph 3.5 mph 86% 0 in 0 W/m2
00:09 37.4 °F 33.4 °F 30 in NNE 0.8 mph 3 mph 85.4% 0 in 0 W/m2
00:14 36.9 °F 32.9 °F 30 in NNE 0.4 mph 2 mph 85.6% 0 in 0 W/m2
00:19 36.5 °F 32.5 °F 30 in NW 0.3 mph 2.3 mph 85.7% 0 in 0 W/m2
00:24 35.2 °F 31.3 °F 30.1 in West 1.6 mph 2.3 mph 85.5% 0 in 0 W/m2
00:29 34.5 °F 30.9 °F 30 in West 2.4 mph 4 mph 87% 0 in 0 W/m2
00:34 34.5 °F 31.5 °F 30.1 in WNW 3.2 mph 4 mph 88.1% 0 in 0 W/m2
00:39 35.4 °F 32.4 °F 30.1 in NNW 3 mph 5 mph 88.2% 0 in 0 W/m2
00:44 36.3 °F 33.1 °F 30 in NW 2.6 mph 5 mph 87.9% 0 in 0 W/m2
00:49 37.2 °F 33.4 °F 30 in NW 2.7 mph 4 mph 86.3% 0 in 0 W/m2
00:54 37 °F 32.9 °F 30.1 in NW 2.5 mph 4 mph 85.1% 0 in 0 W/m2
00:59 35.4 °F 31.1 °F 30.1 in SW 3.7 mph 8.1 mph 84.3% 0 in 0 W/m2
01:04 34.3 °F 30.9 °F 30.1 in WSW 4.3 mph 8 mph 86.9% 0 in 0 W/m2
01:09 34.2 °F 30.9 °F 30.1 in WSW 4.7 mph 6 mph 87.6% 0 in 0 W/m2
01:14 34.7 °F 31.5 °F 30.1 in WSW 2.9 mph 6 mph 88.3% 0 in 0 W/m2
01:19 35.1 °F 31.8 °F 30.1 in WSW 2.2 mph 5 mph 88.2% 0 in 0 W/m2
01:24 34.9 °F 31.6 °F 30.1 in West 2.2 mph 5 mph 87.8% 0 in 0 W/m2
01:29 34.7 °F 31.5 °F 30.1 in WSW 2.2 mph 5 mph 87.9% 0 in 0 W/m2
01:34 35.1 °F 32 °F 30.1 in West 2.1 mph 5 mph 88.2% 0 in 0 W/m2
01:39 35.2 °F 32 °F 30.1 in WSW 2 mph 4 mph 88% 0 in 0 W/m2
01:44 35.2 °F 32 °F 30.1 in South 2.1 mph 6 mph 87.8% 0 in 0 W/m2
01:49 35.2 °F 32 °F 30.1 in SSE 2.1 mph 6 mph 88% 0 in 0 W/m2
01:54 35.1 °F 31.8 °F 30.1 in South 1.2 mph 6 mph 88% 0 in 0 W/m2
01:59 34.7 °F 31.5 °F 30.1 in SSW 1.3 mph 4 mph 88% 0 in 0 W/m2
02:04 34.3 °F 31.5 °F 30.1 in East 2.5 mph 6 mph 88.7% 0 in 0 W/m2
02:09 34.2 °F 31.3 °F 30.1 in NE 1.2 mph 6 mph 88.9% 0 in 0 W/m2
02:14 34.2 °F 31.3 °F 30.1 in NE 0.4 mph 3 mph 89% 0 in 0 W/m2
02:19 34 °F 31.1 °F 30.1 in NE 0.4 mph 2.3 mph 89% 0 in 0 W/m2
02:24 34.2 °F 31.3 °F 30.1 in ENE 1.1 mph 5 mph 89% 0 in 0 W/m2
02:29 34.2 °F 31.3 °F 30.1 in ESE 1.6 mph 5 mph 89.1% 0 in 0 W/m2
02:34 34 °F 31.1 °F 30.1 in SSW 3.1 mph 7 mph 89% 0 in 0 W/m2
02:39 33.8 °F 30.9 °F 30.1 in SW 3.4 mph 7 mph 89% 0 in 0 W/m2
02:44 33.6 °F 30.7 °F 30.1 in WSW 1.5 mph 7 mph 89% 0 in 0 W/m2
02:49 33.6 °F 30.9 °F 30.1 in WSW 0.5 mph 3.5 mph 89.3% 0 in 0 W/m2
02:54 33.6 °F 30.7 °F 30.1 in WSW 0.3 mph 3 mph 89.5% 0 in 0 W/m2
02:59 33.4 °F 30.9 °F 30.1 in SE 1.7 mph 5 mph 90% 0 in 0 W/m2
03:04 33.8 °F 31.3 °F 30.1 in East 2.7 mph 5 mph 90% 0 in 0 W/m2
03:09 33.8 °F 31.3 °F 30.1 in ENE 1.8 mph 5 mph 89.8% 0 in 0 W/m2
03:14 33.4 °F 30.9 °F 30.1 in ENE 0.4 mph 3 mph 90% 0 in 0 W/m2
03:19 33.1 °F 30.6 °F 30.1 in ENE 2.4 mph 6 mph 90.2% 0 in 0 W/m2
03:24 33.1 °F 30.9 °F 30.1 in ENE 4.5 mph 7 mph 91% 0 in 0 W/m2
03:29 32.9 °F 30.6 °F 30.1 in NE 0.9 mph 7 mph 91% 0 in 0 W/m2
03:34 32.7 °F 30.6 °F 30.1 in ENE 0.5 mph 5 mph 91.1% 0 in 0 W/m2
03:39 32.5 °F 30.4 °F 30.1 in East 1.8 mph 3.5 mph 91.3% 0 in 0 W/m2
03:44 32.2 °F 30 °F 30.1 in ENE 0.7 mph 3 mph 91.5% 0 in 0 W/m2
03:49 32.4 °F 30.4 °F 30.1 in NNE 2.6 mph 4 mph 92% 0 in 0 W/m2
03:54 32.9 °F 30.9 °F 30.1 in East 1.6 mph 4 mph 92.4% 0 in 0 W/m2
03:59 32.9 °F 30.9 °F 30.1 in East 2.2 mph 4 mph 92.1% 0 in 0 W/m2
04:04 33.1 °F 30.9 °F 30.1 in NE 1.1 mph 4 mph 92% 0 in 0 W/m2
04:09 33.1 °F 30.9 °F 30.1 in NE 2.3 mph 5 mph 92% 0 in 0 W/m2
04:14 33.4 °F 31.3 °F 30.1 in NE 2.7 mph 5 mph 92% 0 in 0 W/m2
04:19 33.6 °F 31.5 °F 30.1 in NE 4 mph 9 mph 92% 0 in 0 W/m2
04:24 34 °F 31.8 °F 30.1 in NE 4.7 mph 9.2 mph 92% 0 in 0 W/m2
04:29 34.2 °F 32.2 °F 30.1 in NE 4.3 mph 9 mph 92% 0 in 0 W/m2
04:34 34.3 °F 32 °F 30.1 in ENE 5.2 mph 9.2 mph 91% 0 in 0 W/m2
04:39 34.5 °F 32.2 °F 30.1 in ENE 4.3 mph 9.2 mph 91% 0 in 0 W/m2
04:44 34.3 °F 32 °F 30.1 in ENE 5.5 mph 9.2 mph 91% 0 in 0 W/m2
04:49 34 °F 31.6 °F 30.1 in ENE 4.8 mph 9 mph 91% 0 in 0 W/m2
04:54 34 °F 31.6 °F 30.1 in East 3.6 mph 8 mph 91% 0 in 0 W/m2
04:59 33.4 °F 31.3 °F 30.1 in East 3.5 mph 7 mph 91% 0 in 0 W/m2
05:04 32.9 °F 30.6 °F 30.1 in East 3.5 mph 6 mph 91.2% 0 in 0 W/m2
05:09 32.7 °F 30.6 °F 30.1 in East 4.3 mph 7 mph 91.7% 0 in 0 W/m2
05:14 33.6 °F 31.6 °F 30.1 in East 4.9 mph 8.1 mph 92.3% 0 in 0 W/m2
05:19 34.3 °F 32.2 °F 30.1 in East 6.1 mph 8.1 mph 92% 0 in 0 W/m2
05:24 35.1 °F 32.9 °F 30.1 in East 6.2 mph 9.2 mph 91.5% 0 in 0 W/m2
05:29 35.8 °F 33.4 °F 30.1 in East 5.3 mph 9 mph 90.9% 0 in 0 W/m2
05:34 36.1 °F 33.4 °F 30.1 in ESE 2.5 mph 7 mph 90% 0 in 0 W/m2
05:39 36.1 °F 33.4 °F 30.1 in ENE 1.7 mph 5 mph 90% 0 in 0 W/m2
05:44 36 °F 33.3 °F 30.1 in ENE 1.9 mph 5 mph 89.6% 0 in 0 W/m2
05:49 35.8 °F 33.1 °F 30.1 in NE 1.2 mph 5 mph 90% 0 in 0 W/m2
05:54 35.8 °F 33.3 °F 30.1 in East 3.2 mph 6 mph 90.3% 0 in 0 W/m2
05:59 36.3 °F 33.8 °F 30.1 in East 4.2 mph 8.1 mph 90.6% 0 in 0 W/m2
06:04 36.5 °F 33.8 °F 30.1 in East 4.5 mph 8 mph 90% 0 in 0 W/m2
06:09 36.7 °F 34 °F 30.1 in East 5.3 mph 6 mph 90% 0 in 0 W/m2
06:14 36.7 °F 34 °F 30.1 in East 5 mph 6 mph 90% 0 in 0 W/m2
06:19 36.7 °F 34 °F 30.1 in East 5.2 mph 6 mph 90% 0 in 0 W/m2
06:24 37 °F 34.3 °F 30.1 in East 4.7 mph 7 mph 90% 0 in 0 W/m2
06:29 37.4 °F 34.7 °F 30.1 in East 5.3 mph 7 mph 90% 0 in 0 W/m2
06:34 37.6 °F 34.9 °F 30.1 in East 3.4 mph 7 mph 90% 0 in 0 W/m2
06:39 37.6 °F 34.9 °F 30.1 in East 3.7 mph 5 mph 89.7% 0 in 0 W/m2
06:44 37.6 °F 34.9 °F 30.1 in East 4.7 mph 7 mph 89.8% 0 in 0 W/m2
06:49 37.4 °F 34.7 °F 30.1 in East 4.9 mph 7 mph 89.9% 0 in 0 W/m2
06:54 37.2 °F 34.5 °F 30.1 in East 4.7 mph 7 mph 89.9% 0 in 0 W/m2
06:59 37.4 °F 34.7 °F 30.2 in East 3.6 mph 7 mph 90.3% 0 in 0 W/m2
07:04 37.2 °F 34.5 °F 30.2 in ESE 3.4 mph 6 mph 90% 0 in 0 W/m2
07:09 37 °F 34.3 °F 30.2 in East 4.2 mph 7 mph 90% 0 in 0 W/m2
07:14 37.2 °F 34.7 °F 30.2 in East 4.6 mph 7 mph 90.8% 0 in 0 W/m2
07:19 37.4 °F 34.9 °F 30.2 in East 5.7 mph 7 mph 90.3% 0 in 0 W/m2
07:24 37.8 °F 35.1 °F 30.2 in East 6.1 mph 8.1 mph 90% 0 in 0 W/m2
07:29 37.8 °F 35.1 °F 30.2 in ENE 6 mph 9.2 mph 90% 0 in 0 W/m2
07:34 37.8 °F 34.9 °F 30.2 in ENE 5.4 mph 9 mph 89.4% 0 in 0 W/m2
07:39 37.6 °F 34.7 °F 30.2 in ENE 4.2 mph 8 mph 89% 0 in 5 W/m2
07:44 37.4 °F 34.7 °F 30.2 in East 4.4 mph 7 mph 89.8% 0 in 7 W/m2
07:49 37.4 °F 34.7 °F 30.2 in East 3.7 mph 7 mph 90% 0 in 9 W/m2
07:54 37 °F 34.3 °F 30.2 in ENE 3.9 mph 5 mph 90% 0 in 11 W/m2
07:59 36.7 °F 34 °F 30.2 in ENE 3.2 mph 5 mph 90% 0 in 12 W/m2
08:04 36.9 °F 34.3 °F 30.2 in ENE 3.6 mph 7 mph 90.8% 0 in 12 W/m2
08:09 37 °F 34.3 °F 30.2 in ENE 3.6 mph 7 mph 90% 0 in 11 W/m2
08:14 37.2 °F 34.5 °F 30.2 in ENE 2.7 mph 6 mph 89.8% 0 in 14 W/m2
08:19 37 °F 34.3 °F 30.2 in ENE 2 mph 4 mph 90% 0 in 26 W/m2
08:24 36.7 °F 34 °F 30.2 in ENE 0.3 mph 3 mph 90% 0 in 42 W/m2
08:29 36.5 °F 34.2 °F 30.2 in East 0.6 mph 2.3 mph 90.9% 0 in 65 W/m2
08:34 36.9 °F 34.3 °F 30.2 in ESE 1.5 mph 3.5 mph 90.8% 0 in 79 W/m2
08:39 37.4 °F 34.7 °F 30.2 in ESE 2.5 mph 4 mph 90.1% 0 in 91 W/m2
08:44 37.9 °F 35.1 °F 30.2 in ESE 1.6 mph 4 mph 89% 0 in 102 W/m2
08:49 38.5 °F 35.4 °F 30.2 in SE 0.6 mph 3 mph 88.4% 0 in 113 W/m2
08:54 38.8 °F 35.6 °F 30.2 in South 0.7 mph 2.3 mph 87.8% 0 in 123 W/m2
08:59 39 °F 35.6 °F 30.2 in SSW 1.9 mph 3.5 mph 87.6% 0 in 137 W/m2
09:04 38.8 °F 35.8 °F 30.2 in South 0.7 mph 3.5 mph 88.6% 0 in 151 W/m2
09:09 39 °F 35.8 °F 30.2 in SSW 1.1 mph 4 mph 88.1% 0 in 163 W/m2
09:14 39.6 °F 36.3 °F 30.2 in SSW 2.1 mph 4 mph 88.2% 0 in 174 W/m2
09:19 39.9 °F 36.5 °F 30.2 in South 2.2 mph 4 mph 88% 0 in 183 W/m2
09:24 40.1 °F 36.5 °F 30.2 in South 1.5 mph 4 mph 87.3% 0 in 193 W/m2
09:29 40.3 °F 36.9 °F 30.2 in SSW 0.9 mph 3.5 mph 87.5% 0 in 204 W/m2
09:34 40.8 °F 37.2 °F 30.2 in South 0.4 mph 3 mph 87% 0 in 218 W/m2
09:39 41.4 °F 37.4 °F 30.2 in Calm   2 mph 86.2% 0 in 232 W/m2
09:44 42.1 °F 37.9 °F 30.2 in Calm   1 mph 85.6% 0 in 244 W/m2
09:49 42.6 °F 38.3 °F 30.2 in SE 0.6 mph 2.3 mph 84.3% 0 in 258 W/m2
09:54 43.2 °F 38.7 °F 30.2 in SE 0.4 mph 2.3 mph 84% 0 in 271 W/m2
09:59 43.7 °F 39 °F 30.2 in East 0.3 mph 2.3 mph 83.7% 0 in 281 W/m2
10:04 44.2 °F 39.6 °F 30.2 in ESE 0.8 mph 3.5 mph 83.7% 0 in 288 W/m2
10:09 45 °F 39.9 °F 30.2 in ENE 1.8 mph 4 mph 82.6% 0 in 302 W/m2
10:14 45.5 °F 40.5 °F 30.2 in ENE 2.1 mph 5 mph 82.1% 0 in 299 W/m2
10:19 46 °F 40.5 °F 30.2 in ENE 2.4 mph 5 mph 81.2% 0 in 311 W/m2
10:24 46.6 °F 41.2 °F 30.2 in ENE 2.5 mph 5 mph 81.4% 0 in 315 W/m2
10:29 47.1 °F 41.4 °F 30.2 in ENE 3.5 mph 7 mph 80.2% 0 in 325 W/m2
10:34 47.8 °F 42.1 °F 30.2 in East 4.2 mph 7 mph 80.2% 0 in 341 W/m2
10:39 48.4 °F 42.4 °F 30.2 in ENE 6.2 mph 11.5 mph 80% 0 in 352 W/m2
10:44 49.3 °F 43.3 °F 30.2 in ENE 5.7 mph 12 mph 80% 0 in 350 W/m2
10:49 50.4 °F 44.2 °F 30.2 in East 7.2 mph 16 mph 79.3% 0 in 339 W/m2
10:54 50.9 °F 44.4 °F 30.2 in East 8.3 mph 16.1 mph 78% 0 in 355 W/m2
10:59 51.3 °F 44.6 °F 30.2 in East 8.8 mph 16 mph 77.7% 0 in 364 W/m2
11:04 51.6 °F 44.6 °F 30.2 in East 9.6 mph 16.1 mph 77% 0 in 387 W/m2
11:09 52 °F 44.8 °F 30.2 in East 9.3 mph 17 mph 76.7% 0 in 396 W/m2
11:14 52.2 °F 44.8 °F 30.2 in East 11.6 mph 19 mph 75.9% 0 in 413 W/m2
11:19 52.3 °F 45 °F 30.2 in ENE 10.3 mph 20 mph 75.9% 0 in 396 W/m2
11:24 52.7 °F 45 °F 30.2 in East 10.4 mph 20 mph 75.1% 0 in 408 W/m2
11:29 53.1 °F 45 °F 30.2 in ENE 12.5 mph 21 mph 74.1% 0 in 411 W/m2
11:34 53.1 °F 44.8 °F 30.2 in ENE 13.2 mph 21 mph 73.4% 0 in 408 W/m2
11:39 53.2 °F 45 °F 30.2 in ENE 12.1 mph 21 mph 73.3% 0 in 434 W/m2
11:44 53.4 °F 45.1 °F 30.2 in ENE 13.7 mph 21 mph 73% 0 in 441 W/m2
11:49 54 °F 45.5 °F 30.2 in ENE 9.8 mph 23 mph 73% 0 in 457 W/m2
11:54 54.3 °F 45.5 °F 30.2 in ENE 14.3 mph 23 mph 72.2% 0 in 466 W/m2
11:59 54.1 °F 45.3 °F 30.2 in ENE 14 mph 21 mph 72.2% 0 in 478 W/m2
12:04 54.3 °F 45.9 °F 30.2 in East 11.1 mph 21 mph 72.9% 0 in 478 W/m2
12:09 54.5 °F 45.9 °F 30.2 in East 13.2 mph 24.2 mph 72.1% 0 in 473 W/m2
12:14 55 °F 46 °F 30.2 in East 11.4 mph 24.2 mph 71.7% 0 in 471 W/m2
12:19 55 °F 46 °F 30.2 in East 12.6 mph 24 mph 71.2% 0 in 461 W/m2
12:24 54.9 °F 45.9 °F 30.2 in East 12.8 mph 23 mph 71.2% 0 in 455 W/m2
12:29 54.9 °F 45.9 °F 30.2 in ENE 12.8 mph 25.3 mph 71.2% 0 in 471 W/m2
12:34 55 °F 45.9 °F 30.2 in East 13.9 mph 25.3 mph 70.8% 0 in 471 W/m2
12:39 55.4 °F 46 °F 30.2 in East 11.9 mph 22 mph 70.3% 0 in 471 W/m2
12:44 55 °F 45.5 °F 30.2 in ENE 14 mph 21 mph 70.2% 0 in 466 W/m2
12:49 54.9 °F 45.1 °F 30.2 in East 15.1 mph 23 mph 69.5% 0 in 471 W/m2
12:54 55 °F 45.1 °F 30.2 in East 13.5 mph 23 mph 69.3% 0 in 478 W/m2
12:59 55 °F 45.1 °F 30.2 in ENE 13.4 mph 22 mph 69% 0 in 478 W/m2
13:04 55 °F 45.1 °F 30.2 in East 12.6 mph 22 mph 69.4% 0 in 408 W/m2
13:09 55.2 °F 45.5 °F 30.2 in East 11.4 mph 22 mph 69.7% 0 in 469 W/m2
13:14 55.6 °F 45.5 °F 30.2 in East 12.7 mph 22 mph 69% 0 in 468 W/m2
13:19 55.8 °F 45.7 °F 30.2 in East 11.9 mph 22 mph 68.7% 0 in 490 W/m2
13:24 55.8 °F 45.7 °F 30.2 in East 11.1 mph 19 mph 68.8% 0 in 496 W/m2
13:29 56.1 °F 45.7 °F 30.2 in East 12.6 mph 24.2 mph 67.8% 0 in 496 W/m2
13:34 56.1 °F 45.5 °F 30.2 in East 12.1 mph 24 mph 67.5% 0 in 464 W/m2
13:39 56.1 °F 45.3 °F 30.2 in East 12.4 mph 19.6 mph 67.2% 0 in 429 W/m2
13:44 56.1 °F 45.5 °F 30.2 in East 11.3 mph 20 mph 67.2% 0 in 399 W/m2
13:49 56.1 °F 45.5 °F 30.2 in East 11.2 mph 18.4 mph 67.5% 0 in 394 W/m2
13:54 56.3 °F 45.7 °F 30.2 in East 8.9 mph 15 mph 67.3% 0 in 385 W/m2
13:59 56.5 °F 45.9 °F 30.2 in East 8.7 mph 15 mph 67.2% 0 in 392 W/m2
14:04 56.3 °F 45.5 °F 30.2 in East 11.1 mph 19.6 mph 67% 0 in 367 W/m2
14:09 55.9 °F 45.1 °F 30.2 in East 12.6 mph 20 mph 67% 0 in 329 W/m2
14:14 55.6 °F 45 °F 30.2 in East 14.2 mph 22 mph 67.3% 0 in 262 W/m2
14:19 55.4 °F 44.8 °F 30.2 in ENE 12.7 mph 22 mph 67.1% 0 in 237 W/m2
14:24 55.4 °F 45 °F 30.2 in East 11.7 mph 20 mph 67.8% 0 in 229 W/m2
14:29 55.4 °F 45.1 °F 30.2 in East 11.5 mph 18.4 mph 68.3% 0 in 227 W/m2
14:34 55.4 °F 45.5 °F 30.2 in East 10.7 mph 18 mph 69% 0 in 320 W/m2
14:39 55.8 °F 45.7 °F 30.2 in East 10.9 mph 16.1 mph 69% 0 in 424 W/m2
14:44 56.3 °F 45.9 °F 30.2 in East 9.3 mph 17.3 mph 67.9% 0 in 396 W/m2
14:49 55.8 °F 45.3 °F 30.2 in East 12.4 mph 19.6 mph 67.7% 0 in 227 W/m2
14:54 55.6 °F 45 °F 30.2 in East 12.4 mph 22 mph 67.8% 0 in 257 W/m2
14:59 55.4 °F 45 °F 30.2 in East 10.3 mph 22 mph 67.8% 0 in 257 W/m2
15:04 55.2 °F 45 °F 30.2 in ESE 10.7 mph 22 mph 68.1% 0 in 216 W/m2
15:09 55.2 °F 44.8 °F 30.2 in East 10 mph 18 mph 68.2% 0 in 265 W/m2
15:14 55 °F 44.8 °F 30.2 in East 9.9 mph 17 mph 68.3% 0 in 209 W/m2
15:19 55 °F 45 °F 30.2 in East 7.9 mph 13 mph 68.8% 0 in 153 W/m2
15:24 54.9 °F 44.4 °F 30.2 in East 10.7 mph 18.4 mph 68.2% 0 in 141 W/m2
15:29 54.5 °F 44.6 °F 30.2 in East 12.1 mph 18 mph 69% 0 in 167 W/m2
15:34 54.5 °F 44.4 °F 30.2 in East 10.9 mph 18.4 mph 68.9% 0 in 200 W/m2
15:39 54.5 °F 44.2 °F 30.2 in ENE 10.4 mph 18.4 mph 68% 0 in 244 W/m2
15:44 54.5 °F 44.2 °F 30.2 in East 10.7 mph 17 mph 68.1% 0 in 120 W/m2
15:49 54.5 °F 44.1 °F 30.2 in East 8.8 mph 16 mph 68% 0 in 116 W/m2
15:54 54.3 °F 44.1 °F 30.2 in East 8.8 mph 16.1 mph 68.4% 0 in 107 W/m2
15:59 54.1 °F 44.1 °F 30.2 in East 9.8 mph 16.1 mph 68.7% 0 in 98 W/m2
16:04 53.8 °F 43.9 °F 30.2 in East 9.2 mph 16.1 mph 69% 0 in 86 W/m2
16:09 53.6 °F 43.9 °F 30.2 in East 8.9 mph 16 mph 69.3% 0 in 69 W/m2
16:14 53.4 °F 43.9 °F 30.2 in East 8 mph 14 mph 70% 0 in 60 W/m2
16:19 53.2 °F 43.7 °F 30.2 in East 7.6 mph 14 mph 70% 0 in 60 W/m2
16:24 53.1 °F 43.5 °F 30.2 in East 8.1 mph 14 mph 70% 0 in 58 W/m2
16:29 52.9 °F 43.5 °F 30.2 in East 6.8 mph 14 mph 70.4% 0 in 77 W/m2
16:34 52.9 °F 43.7 °F 30.2 in East 6.5 mph 14 mph 71% 0 in 63 W/m2
16:39 52.7 °F 43.5 °F 30.2 in ESE 5.5 mph 10 mph 71% 0 in 56 W/m2
16:44 52.5 °F 43.3 °F 30.2 in East 7.3 mph 10.4 mph 71% 0 in 51 W/m2
16:49 52.5 °F 43.5 °F 30.2 in ESE 5.7 mph 10 mph 71.8% 0 in 47 W/m2
16:54 52.3 °F 43.5 °F 30.2 in East 5.2 mph 9 mph 72% 0 in 40 W/m2
16:59 52 °F 43.3 °F 30.2 in East 5.2 mph 10.4 mph 72.2% 0 in 39 W/m2
17:04 52 °F 43.5 °F 30.2 in East 5.8 mph 10 mph 73% 0 in 30 W/m2
17:09 51.8 °F 43.3 °F 30.2 in East 6.1 mph 9.2 mph 73% 0 in 19 W/m2
17:14 51.4 °F 43.3 °F 30.2 in East 5.5 mph 9.2 mph 73.8% 0 in 16 W/m2
17:19 51.1 °F 43 °F 30.2 in East 6.5 mph 11 mph 74.1% 0 in 9 W/m2
17:24 50.7 °F 43.2 °F 30.2 in East 6.8 mph 11.5 mph 75% 0 in 5 W/m2
17:29 50.5 °F 43 °F 30.2 in East 5.5 mph 12 mph 75% 0 in 0 W/m2
17:34 50.4 °F 43 °F 30.2 in East 5.7 mph 9 mph 75.7% 0 in 0 W/m2
17:39 50.2 °F 42.8 °F 30.2 in East 5 mph 9.2 mph 76% 0 in 0 W/m2
17:44 49.8 °F 42.6 °F 30.2 in East 6 mph 9.2 mph 76.4% 0 in 0 W/m2
17:49 49.6 °F 42.6 °F 30.2 in East 6.2 mph 9.2 mph 77% 0 in 0 W/m2
17:54 49.3 °F 42.4 °F 30.2 in ENE 6.2 mph 9.2 mph 77.1% 0 in 0 W/m2
17:59 49.3 °F 42.6 °F 30.2 in ENE 6 mph 9.2 mph 78% 0 in 0 W/m2
18:04 49.1 °F 42.4 °F 30.2 in ENE 5.7 mph 9.2 mph 78% 0 in 0 W/m2
18:09 48.9 °F 42.3 °F 30.2 in ENE 5 mph 9.2 mph 78% 0 in 0 W/m2
18:14 48.7 °F 42.3 °F 30.2 in ENE 5.2 mph 8.1 mph 78.4% 0 in 0 W/m2
18:19 48.6 °F 42.3 °F 30.2 in ENE 5.3 mph 8.1 mph 79% 0 in 0 W/m2
18:24 48.2 °F 42.1 °F 30.2 in ENE 5.2 mph 8.1 mph 79% 0 in 0 W/m2
18:29 48 °F 42.1 °F 30.2 in ENE 4.5 mph 8 mph 79.8% 0 in 0 W/m2
18:34 47.7 °F 41.9 °F 30.2 in ENE 5.5 mph 8.1 mph 80% 0 in 0 W/m2
18:39 47.5 °F 41.9 °F 30.2 in ENE 5.3 mph 8.1 mph 80.7% 0 in 0 W/m2
18:44 47.5 °F 41.9 °F 30.2 in East 5.2 mph 8.1 mph 81% 0 in 0 W/m2
18:49 47.3 °F 41.9 °F 30.2 in East 5 mph 9.2 mph 81% 0 in 0 W/m2
18:54 47.1 °F 41.7 °F 30.2 in East 5.4 mph 9 mph 81% 0 in 0 W/m2
18:59 47.1 °F 41.9 °F 30.2 in East 2.4 mph 5 mph 81.9% 0 in 0 W/m2
19:04 46.9 °F 41.7 °F 30.2 in East 2 mph 5 mph 82% 0 in 0 W/m2
19:09 46.8 °F 41.5 °F 30.2 in ENE 2.7 mph 6 mph 82.3% 0 in 0 W/m2
19:14 46.6 °F 41.7 °F 30.2 in ENE 3.7 mph 7 mph 83% 0 in 0 W/m2
19:19 46.6 °F 41.7 °F 30.2 in ENE 3.4 mph 8 mph 83% 0 in 0 W/m2
19:24 46.6 °F 41.7 °F 30.2 in ENE 3.6 mph 7 mph 83% 0 in 0 W/m2
19:29 46.4 °F 41.5 °F 30.2 in ENE 3.1 mph 7 mph 83% 0 in 0 W/m2
19:34 46.4 °F 41.5 °F 30.2 in ENE 3.1 mph 6 mph 83% 0 in 0 W/m2
19:39 46.4 °F 41.5 °F 30.2 in East 2.9 mph 6 mph 83% 0 in 0 W/m2
19:44 46.2 °F 41.4 °F 30.2 in ENE 3.5 mph 6 mph 83% 0 in 0 W/m2
19:49 46 °F 41.2 °F 30.2 in ENE 3.6 mph 6 mph 83.5% 0 in 0 W/m2
19:54 45.7 °F 41.2 °F 30.2 in East 2.9 mph 6 mph 84% 0 in 0 W/m2
19:59 45.7 °F 41 °F 30.2 in ENE 2.5 mph 6 mph 84% 0 in 0 W/m2
20:04 45.3 °F 41 °F 30.2 in East 2.5 mph 5 mph 84.9% 0 in 0 W/m2
20:09 45.3 °F 41 °F 30.2 in ENE 1.2 mph 5 mph 85% 0 in 0 W/m2
20:14 44.8 °F 40.8 °F 30.2 in ENE 0.9 mph 3 mph 85.6% 0 in 0 W/m2
20:19 44.4 °F 40.5 °F 30.2 in ENE 0.3 mph 2.3 mph 86% 0 in 0 W/m2
20:24 44.1 °F 40.3 °F 30.2 in Calm   2 mph 86.5% 0 in 0 W/m2
20:29 43.7 °F 40.3 °F 30.2 in Calm     87.4% 0 in 0 W/m2
20:34 43.7 °F 40.3 °F 30.2 in Calm     87.2% 0 in 0 W/m2
20:39 43.5 °F 39.9 °F 30.2 in Calm     87% 0 in 0 W/m2
20:44 43.3 °F 39.9 °F 30.2 in Calm     87.4% 0 in 0 W/m2
20:49 43.2 °F 39.9 °F 30.2 in Calm     88% 0 in 0 W/m2
20:54 43.3 °F 39.9 °F 30.2 in Calm     88% 0 in 0 W/m2
20:59 43.2 °F 39.9 °F 30.2 in Calm     88% 0 in 0 W/m2
21:04 43.3 °F 39.9 °F 30.2 in Calm     88% 0 in 0 W/m2
21:09 43 °F 39.9 °F 30.2 in Calm     88.5% 0 in 0 W/m2
21:14 43 °F 39.9 °F 30.2 in Calm     88.5% 0 in 0 W/m2
21:19 42.8 °F 39.6 °F 30.2 in Calm     88.1% 0 in 0 W/m2
21:24 42.6 °F 39.4 °F 30.2 in Calm     88.2% 0 in 0 W/m2
21:29 42.4 °F 39.2 °F 30.2 in Calm     88% 0 in 0 W/m2
21:34 42.3 °F 39 °F 30.2 in Calm     88% 0 in 0 W/m2
21:39 41.9 °F 38.7 °F 30.2 in SE 0.6 mph 3.5 mph 88% 0 in 0 W/m2
21:44 41.7 °F 38.7 °F 30.2 in Calm   3 mph 88.7% 0 in 0 W/m2
21:49 41.9 °F 38.8 °F 30.2 in SE 0.1 mph 2 mph 89% 0 in 0 W/m2
21:54 42.1 °F 39 °F 30.2 in NNE 1 mph 3.5 mph 89.1% 0 in 0 W/m2
21:59 42.1 °F 39.2 °F 30.2 in NNE 0.2 mph 3 mph 89% 0 in 0 W/m2
22:04 41.9 °F 38.8 °F 30.2 in North 1.6 mph 3.5 mph 89% 0 in 0 W/m2
22:09 41.7 °F 38.8 °F 30.2 in NNE 2.2 mph 3.5 mph 89.5% 0 in 0 W/m2
22:14 42.1 °F 39.4 °F 30.2 in NNE 2.2 mph 3.5 mph 90% 0 in 0 W/m2
22:19 42.3 °F 39.4 °F 30.2 in NE 1.2 mph 3 mph 89.3% 0 in 0 W/m2
22:24 42.1 °F 39 °F 30.2 in NE 0.5 mph 2.3 mph 89% 0 in 0 W/m2
22:29 41.7 °F 38.7 °F 30.2 in Calm   2 mph 88.8% 0 in 0 W/m2
22:34 41.5 °F 38.7 °F 30.2 in Calm     89.3% 0 in 0 W/m2
22:39 41.5 °F 38.7 °F 30.2 in NE 0.2 mph 1.2 mph 89% 0 in 0 W/m2
22:44 41.5 °F 38.7 °F 30.2 in NE 0.4 mph 1.2 mph 89.2% 0 in 0 W/m2
22:49 41.4 °F 38.5 °F 30.2 in Calm   1 mph 89.6% 0 in 0 W/m2
22:54 41.4 °F 38.7 °F 30.2 in Calm     90% 0 in 0 W/m2
22:59 41.5 °F 38.5 °F 30.2 in Calm     89.3% 0 in 0 W/m2
23:04 41.2 °F 38.1 °F 30.2 in Calm     89% 0 in 0 W/m2
23:09 40.6 °F 37.8 °F 30.2 in Calm     89.3% 0 in 0 W/m2
23:14 40.5 °F 37.8 °F 30.2 in West 0.9 mph 3.5 mph 89.8% 0 in 0 W/m2
23:19 40.6 °F 38.3 °F 30.2 in West 0.6 mph 3.5 mph 90.9% 0 in 0 W/m2
23:24 41 °F 38.3 °F 30.1 in Calm   3 mph 90.3% 0 in 0 W/m2
23:29 40.8 °F 38.1 °F 30.1 in Calm     90% 0 in 0 W/m2
23:34 40.6 °F 37.9 °F 30.1 in Calm     90% 0 in 0 W/m2
23:39 40.6 °F 38.1 °F 30.1 in Calm     90.5% 0 in 0 W/m2
23:44 40.5 °F 37.8 °F 30.1 in Calm     90% 0 in 0 W/m2
23:49 39.9 °F 37.2 °F 30.1 in Calm     89.6% 0 in 0 W/m2
23:54 39.2 °F 36.5 °F 30.1 in West 0.1 mph 1.2 mph 89.9% 0 in 0 W/m2
23:59 39 °F 36.7 °F 30.1 in West 0.4 mph 1.2 mph 90.9% 0 in 0 W/m2
Stazione Meteorologica MeteoMincio Rivalta s/M (MN)
Con i complimenti di Weather Underground - 2 mb


METEO PILLOLE
La più grave siccità negli USA
Grandi pianure:
Dal 1930 al 1938 l'erosione favorita dalle pratiche agricole, i forti venti e l'assenza di precipitazioni convertirono in polvere circa 200.000 Km quadrati di terreno coltivabile.

Do NOT follow this link or you will be banned from the site!